Terminal Aerodrome Forecast
Issued by NWS

Home | Current Version | Previous Version | Graphics & Text | Print | Product List | Glossary Off
Versions: 1 2 3 4 5 6 7 8 9 10 11 12 13 14 15 16 17 18 19 20 21 22 23 24 25 26 27 28 29 30 31 32 33 34 35

000
FTUS43 KDDC 291630 AAA
TAFGCK
TAF AMD
KGCK 291630Z 2917/3012 17020G30KT P6SM SKC
     FM300200 18015G25KT P6SM BKN070
     FM300400 18015G25KT P6SM VCTS BKN050CB
     FM301100 19010KT P6SM BKN070=

USA.gov is the U.S. government's official web portal to all federal, state and local government web resources and services.